createdAt,value
2019-06-10T00:00:31.243Z,64.80
2019-06-10T00:02:57.734Z,65.50
2019-06-10T00:05:24.258Z,65.90
2019-06-10T00:07:51.575Z,66.10
2019-06-10T00:10:18.338Z,66.70
2019-06-10T00:12:46.465Z,66.70
2019-06-10T00:15:13.111Z,66.60
2019-06-10T00:17:53.134Z,66.60
2019-06-10T00:20:10.971Z,67.50
2019-06-10T00:22:37.177Z,67.70
2019-06-10T00:25:06.674Z,68.80
2019-06-10T00:27:33.413Z,69.40
2019-06-10T00:30:02.594Z,69.20
2019-06-10T00:32:28.779Z,70.00
2019-06-10T00:34:55.093Z,70.00
2019-06-10T00:37:21.366Z,69.70
2019-06-10T00:39:47.677Z,68.90
2019-06-10T00:42:15.099Z,68.60
2019-06-10T00:44:41.841Z,69.00
2019-06-10T00:47:12.451Z,68.90
2019-06-10T00:49:36.288Z,68.70
2019-06-10T00:52:04.237Z,68.40
2019-06-10T00:54:31.309Z,67.90
2019-06-10T00:56:57.679Z,67.40
2019-06-10T00:59:25.131Z,66.80
2019-06-10T01:01:51.440Z,66.20
2019-06-10T01:04:17.658Z,66.00
2019-06-10T01:06:43.881Z,66.00
2019-06-10T01:09:12.786Z,66.00
2019-06-10T01:11:38.352Z,66.30
2019-06-10T01:14:05.167Z,66.20
2019-06-10T01:16:31.897Z,66.10
2019-06-10T01:18:58.292Z,65.80
2019-06-10T01:21:24.533Z,65.10
2019-06-10T01:23:51.105Z,64.90
2019-06-10T01:26:18.342Z,64.50
2019-06-10T01:28:44.713Z,64.60
2019-06-10T01:31:15.608Z,64.60
2019-06-10T01:33:41.053Z,63.60
2019-06-10T01:36:07.673Z,63.70
2019-06-10T01:38:34.073Z,63.50
2019-06-10T01:41:01.505Z,64.10
2019-06-10T01:43:28.049Z,64.10
2019-06-10T01:45:54.260Z,65.50
2019-06-10T01:48:20.930Z,64.60
2019-06-10T01:50:47.541Z,64.80
2019-06-10T01:53:15.676Z,64.40
2019-06-10T01:55:42.124Z,64.70
2019-06-10T01:58:10.639Z,65.30
2019-06-10T02:00:45.633Z,64.90
2019-06-10T02:03:16.238Z,65.30
2019-06-10T02:05:41.953Z,65.50
2019-06-10T02:08:08.701Z,65.30
2019-06-10T02:10:36.321Z,65.90
2019-06-10T02:13:02.637Z,66.30
2019-06-10T02:15:31.381Z,67.30
2019-06-10T02:17:56.997Z,67.60
2019-06-10T02:20:23.943Z,67.70
2019-06-10T02:22:51.573Z,69.70
2019-06-10T02:25:18.850Z,69.00
2019-06-10T02:28:01.086Z,68.70
2019-06-10T02:30:40.026Z,69.40
2019-06-10T02:32:56.602Z,68.40
2019-06-10T02:35:32.260Z,68.10
2019-06-10T02:37:53.724Z,67.90
2019-06-10T02:40:24.546Z,68.90
2019-06-10T02:42:49.231Z,70.00
2019-06-10T02:45:19.628Z,69.40
2019-06-10T02:47:44.563Z,69.40
2019-06-10T02:50:14.423Z,68.70
2019-06-10T02:52:44.085Z,69.60
2019-06-10T02:55:09.073Z,67.80
2019-06-10T02:57:40.056Z,68.70
2019-06-10T03:00:17.006Z,68.00
2019-06-10T03:02:38.050Z,70.00
2019-06-10T03:05:04.947Z,70.80
2019-06-10T03:07:35.267Z,69.90
2019-06-10T03:09:59.446Z,70.60
2019-06-10T03:12:25.960Z,70.50
2019-06-10T03:14:52.653Z,70.70
2019-06-10T03:17:23.229Z,70.40
2019-06-10T03:19:50.795Z,70.50
2019-06-10T03:22:17.980Z,70.90
2019-06-10T03:24:44.369Z,71.80
2019-06-10T03:27:12.534Z,70.80
2019-06-10T03:29:38.715Z,70.90
2019-06-10T03:32:05.731Z,70.40
2019-06-10T03:34:40.543Z,70.70
2019-06-10T03:37:02.342Z,70.40
2019-06-10T03:39:28.719Z,70.90
2019-06-10T03:41:55.749Z,71.10
2019-06-10T03:44:24.817Z,68.40
2019-06-10T03:46:52.309Z,65.30
2019-06-10T03:49:19.151Z,63.60
2019-06-10T03:51:45.570Z,61.10
2019-06-10T03:54:13.137Z,59.10
2019-06-10T03:56:39.597Z,56.40
2019-06-10T03:59:05.832Z,55.20
2019-06-10T04:01:33.366Z,54.60
2019-06-10T04:04:02.193Z,53.70
2019-06-10T04:06:29.421Z,51.70
2019-06-10T04:08:55.929Z,50.80
2019-06-10T04:11:23.962Z,50.30
2019-06-10T04:13:50.293Z,49.80
2019-06-10T04:16:17.610Z,48.20
2019-06-10T04:18:44.154Z,47.20
2019-06-10T04:21:12.594Z,46.50
2019-06-10T04:23:38.520Z,46.70
2019-06-10T04:26:04.945Z,46.10
2019-06-10T04:28:33.511Z,46.50
2019-06-10T04:30:59.338Z,46.90
2019-06-10T04:33:26.201Z,47.10
2019-06-10T04:35:53.593Z,46.90
2019-06-10T04:38:20.980Z,46.20
2019-06-10T04:40:47.933Z,46.10
2019-06-10T04:43:14.181Z,45.80
2019-06-10T04:45:42.976Z,46.30
2019-06-10T04:48:09.222Z,46.30
2019-06-10T04:50:42.545Z,46.20
2019-06-10T04:53:04.689Z,45.80
2019-06-10T04:55:32.655Z,45.50
2019-06-10T04:57:59.061Z,44.70
2019-06-10T05:00:27.162Z,45.60
2019-06-10T05:02:53.602Z,45.20
2019-06-10T05:05:21.568Z,45.20
2019-06-10T05:07:47.961Z,44.60
2019-06-10T05:10:14.485Z,44.30
2019-06-10T05:12:43.120Z,44.10
2019-06-10T05:15:09.043Z,44.60
2019-06-10T05:17:35.257Z,44.70
2019-06-10T05:20:02.814Z,44.10
2019-06-10T05:22:30.599Z,44.00
2019-06-10T05:24:57.119Z,43.00
2019-06-10T05:27:25.090Z,43.30
2019-06-10T05:29:52.708Z,43.00
2019-06-10T05:32:20.816Z,41.90
2019-06-10T05:34:47.341Z,42.60
2019-06-10T05:37:13.565Z,43.40
2019-06-10T05:39:42.272Z,42.60
2019-06-10T05:42:07.916Z,43.00
2019-06-10T05:44:34.641Z,42.70
2019-06-10T05:47:03.691Z,42.20
2019-06-10T05:49:30.493Z,42.50
2019-06-10T05:51:57.322Z,41.70
2019-06-10T05:54:24.910Z,41.40
2019-06-10T05:56:52.214Z,41.80
2019-06-10T05:59:18.753Z,41.70
2019-06-10T06:01:44.977Z,41.60
2019-06-10T06:04:12.639Z,40.30
2019-06-10T06:06:41.713Z,40.80
2019-06-10T06:09:07.281Z,38.50
2019-06-10T06:11:35.267Z,40.40
2019-06-10T06:14:02.694Z,40.90
2019-06-10T06:16:29.819Z,40.80
2019-06-10T06:18:57.256Z,40.10
2019-06-10T06:21:30.055Z,38.70
2019-06-10T06:23:52.818Z,40.60
2019-06-10T06:26:19.666Z,38.90
2019-06-10T06:28:45.881Z,39.20
2019-06-10T06:31:12.662Z,39.40
2019-06-10T06:33:39.938Z,39.60
2019-06-10T06:36:06.265Z,38.80
2019-06-10T06:38:35.139Z,38.80
2019-06-10T06:41:02.973Z,39.40
2019-06-10T06:43:30.666Z,41.10
2019-06-10T06:45:56.725Z,40.90
2019-06-10T06:48:23.111Z,41.00
2019-06-10T06:51:02.078Z,40.00
2019-06-10T06:53:28.590Z,38.60
2019-06-10T06:55:45.533Z,38.50
2019-06-10T06:58:12.570Z,38.50
2019-06-10T07:00:55.705Z,38.90
2019-06-10T07:03:07.842Z,38.70
2019-06-10T07:05:35.955Z,38.70
2019-06-10T07:08:03.412Z,39.10
2019-06-10T07:10:35.459Z,39.40
2019-06-10T07:13:03.889Z,39.90
2019-06-10T07:15:42.202Z,39.40
2019-06-10T07:18:08.894Z,39.90
2019-06-10T07:20:36.680Z,39.60
2019-06-10T07:23:03.281Z,39.00
2019-06-10T07:25:32.151Z,39.20
2019-06-10T07:27:57.613Z,39.70
2019-06-10T07:30:23.853Z,39.60
2019-06-10T07:32:50.081Z,38.80
2019-06-10T07:35:16.302Z,39.90
2019-06-10T07:37:44.503Z,38.90
2019-06-10T07:40:12.888Z,39.80
2019-06-10T07:42:39.059Z,39.30
2019-06-10T07:45:06.145Z,38.50
2019-06-10T07:47:33.832Z,39.90
2019-06-10T07:50:02.880Z,39.50
2019-06-10T07:52:28.501Z,38.40
2019-06-10T07:54:54.783Z,39.70
2019-06-10T07:57:22.570Z,39.90
2019-06-10T07:59:49.155Z,39.70
2019-06-10T08:02:15.471Z,39.60
2019-06-10T08:04:44.207Z,40.30
2019-06-10T08:07:12.399Z,40.00
2019-06-10T08:09:39.070Z,38.90
2019-06-10T08:12:05.999Z,38.90
2019-06-10T08:14:33.033Z,40.10
2019-06-10T08:16:59.451Z,40.40
2019-06-10T08:19:34.354Z,40.20
2019-06-10T08:21:53.925Z,39.50
2019-06-10T08:24:22.138Z,38.90
2019-06-10T08:26:48.338Z,39.80
2019-06-10T08:29:14.581Z,38.10
2019-06-10T08:31:43.659Z,38.50
2019-06-10T08:34:09.018Z,38.80
2019-06-10T08:36:36.294Z,39.00
2019-06-10T08:39:05.189Z,38.40
2019-06-10T08:41:32.271Z,38.20
2019-06-10T08:43:58.741Z,38.00
2019-06-10T08:46:24.969Z,38.10
2019-06-10T08:48:52.563Z,39.20
2019-06-10T08:51:19.058Z,38.90
2019-06-10T08:53:48.094Z,38.10
2019-06-10T08:56:13.353Z,38.90
2019-06-10T08:58:40.946Z,39.30
2019-06-10T09:01:07.689Z,39.00
2019-06-10T09:03:33.897Z,39.20
2019-06-10T09:06:02.546Z,38.60
2019-06-10T09:08:28.846Z,39.00
2019-06-10T09:10:55.525Z,39.20
2019-06-10T09:13:22.431Z,38.50
2019-06-10T09:16:05.982Z,38.20
2019-06-10T09:18:19.995Z,38.80
2019-06-10T09:20:55.683Z,38.70
2019-06-10T09:23:24.843Z,37.50
2019-06-10T09:25:52.832Z,38.80
2019-06-10T09:28:15.961Z,37.80
2019-06-10T09:30:47.681Z,38.50
2019-06-10T09:33:12.846Z,38.40
2019-06-10T09:35:39.907Z,37.50
2019-06-10T09:38:06.401Z,37.50
2019-06-10T09:40:59.927Z,37.90
2019-06-10T09:43:22.547Z,36.70
2019-06-10T09:45:51.344Z,37.40
2019-06-10T09:48:22.693Z,37.10
2019-06-10T09:50:53.579Z,37.70
2019-06-10T09:53:30.241Z,37.10
2019-06-10T09:55:49.708Z,37.50
2019-06-10T09:58:15.209Z,36.00
2019-06-10T10:00:51.018Z,36.80
2019-06-10T10:03:15.897Z,37.30
2019-06-10T10:05:55.176Z,36.40
2019-06-10T10:08:12.677Z,35.80
2019-06-10T10:10:39.465Z,35.50
2019-06-10T10:13:06.593Z,36.10
2019-06-10T10:15:34.479Z,37.50
2019-06-10T10:18:04.837Z,37.10
2019-06-10T10:20:33.963Z,37.30
2019-06-10T10:22:59.057Z,37.80
2019-06-10T10:25:25.280Z,38.50
2019-06-10T10:27:57.242Z,39.10
2019-06-10T10:30:25.505Z,40.20
2019-06-10T10:32:55.457Z,39.40
2019-06-10T10:35:24.214Z,39.00
2019-06-10T10:37:53.841Z,38.50
2019-06-10T10:40:19.941Z,36.70
2019-06-10T10:42:52.287Z,37.80
2019-06-10T10:45:14.665Z,37.70
2019-06-10T10:47:40.870Z,38.60
2019-06-10T10:50:07.847Z,37.60
2019-06-10T10:52:35.146Z,37.70
2019-06-10T10:55:06.720Z,37.80
2019-06-10T10:57:32.949Z,37.20
2019-06-10T10:59:58.505Z,35.50
2019-06-10T11:02:24.820Z,35.90
2019-06-10T11:04:55.103Z,35.60
2019-06-10T11:07:19.089Z,35.50
2019-06-10T11:09:46.556Z,36.20
2019-06-10T11:12:15.228Z,36.60
2019-06-10T11:14:42.460Z,37.50
2019-06-10T11:17:08.858Z,36.50
2019-06-10T11:19:35.107Z,38.40
2019-06-10T11:22:02.790Z,36.90
2019-06-10T11:24:37.708Z,37.60
2019-06-10T11:26:58.414Z,38.20
2019-06-10T11:29:25.762Z,38.30
2019-06-10T11:31:55.042Z,38.40
2019-06-10T11:34:20.043Z,38.80
2019-06-10T11:36:47.872Z,37.50
2019-06-10T11:39:14.297Z,38.90
2019-06-10T11:41:42.872Z,38.30
2019-06-10T11:44:08.541Z,38.80
2019-06-10T11:46:34.958Z,38.60
2019-06-10T11:49:03.904Z,38.70
2019-06-10T11:51:29.416Z,39.30
2019-06-10T11:53:57.177Z,39.20
2019-06-10T11:56:23.685Z,38.90
2019-06-10T11:58:50.040Z,39.20
2019-06-10T12:01:16.456Z,37.90
2019-06-10T12:03:43.373Z,37.80
2019-06-10T12:06:09.697Z,36.80
2019-06-10T12:08:35.909Z,37.80
2019-06-10T12:11:02.624Z,37.80
2019-06-10T12:13:28.982Z,38.20
2019-06-10T12:16:50.440Z,38.20
2019-06-10T12:18:23.296Z,38.70
2019-06-10T12:20:49.705Z,38.20
2019-06-10T12:23:16.053Z,37.60
2019-06-10T12:25:43.638Z,38.50
2019-06-10T12:28:12.725Z,39.20
2019-06-10T12:30:38.020Z,39.00
2019-06-10T12:33:05.621Z,38.50
2019-06-10T12:35:33.353Z,36.70
2019-06-10T12:38:13.987Z,36.70
2019-06-10T12:40:42.761Z,36.60
2019-06-10T12:43:08.407Z,36.40
2019-06-10T12:45:34.737Z,35.30
2019-06-10T12:48:04.553Z,35.00
2019-06-10T12:50:29.068Z,35.10
2019-06-10T12:52:56.507Z,36.30
2019-06-10T12:55:38.504Z,35.10
2019-06-10T12:57:52.324Z,33.00
2019-06-10T13:00:23.847Z,34.50
2019-06-10T13:02:49.059Z,34.10
2019-06-10T13:05:15.273Z,33.70
2019-06-10T13:07:43.197Z,34.90
2019-06-10T13:10:12.127Z,34.80
2019-06-10T13:12:38.499Z,34.00
2019-06-10T13:15:08.778Z,33.10
2019-06-10T13:17:35.330Z,34.00
2019-06-10T13:20:05.777Z,35.20
2019-06-10T13:22:32.402Z,35.20
2019-06-10T13:24:58.638Z,33.00
2019-06-10T13:27:25.067Z,33.70
2019-06-10T13:30:04.754Z,32.90
2019-06-10T13:32:32.465Z,32.30
2019-06-10T13:35:00.572Z,34.10
2019-06-10T13:37:27.037Z,33.80
2019-06-10T13:39:53.256Z,31.60
2019-06-10T13:42:19.485Z,33.20
2019-06-10T13:44:45.754Z,34.00
2019-06-10T13:47:15.001Z,33.60
2019-06-10T13:49:42.839Z,31.60
2019-06-10T13:52:16.250Z,33.00
2019-06-10T13:54:38.332Z,33.20
2019-06-10T13:57:06.910Z,31.80
2019-06-10T13:59:32.579Z,33.30
2019-06-10T14:01:59.889Z,33.20
2019-06-10T14:04:26.872Z,33.00
2019-06-10T14:06:56.784Z,32.30
2019-06-10T14:09:23.146Z,32.70
2019-06-10T14:11:49.665Z,31.30
2019-06-10T14:14:18.180Z,34.40
2019-06-10T14:16:43.903Z,33.20
2019-06-10T14:19:12.615Z,30.30
2019-06-10T14:21:38.201Z,31.70
2019-06-10T14:24:04.478Z,31.60
2019-06-10T14:26:39.858Z,32.50
2019-06-10T14:28:58.707Z,31.50
2019-06-10T14:31:39.090Z,32.10
2019-06-10T14:33:53.295Z,32.50
2019-06-10T14:36:22.038Z,31.50
2019-06-10T14:38:47.645Z,30.90
2019-06-10T14:41:14.291Z,30.70
2019-06-10T14:43:42.397Z,32.60
2019-06-10T14:46:09.081Z,31.80
2019-06-10T14:48:36.426Z,29.70
2019-06-10T14:51:03.311Z,30.60
2019-06-10T14:53:30.173Z,31.10
2019-06-10T14:55:56.397Z,31.10
2019-06-10T14:58:23.283Z,31.20
2019-06-10T15:00:49.777Z,30.30
2019-06-10T15:03:20.023Z,30.50
2019-06-10T15:05:45.230Z,31.70
2019-06-10T15:08:13.809Z,32.40
2019-06-10T15:10:39.553Z,30.90
2019-06-10T15:13:05.803Z,31.70
2019-06-10T15:15:33.062Z,31.80
2019-06-10T15:17:59.557Z,32.40
2019-06-10T15:20:25.937Z,31.10
2019-06-10T15:22:52.782Z,31.00
2019-06-10T15:25:22.546Z,30.10
2019-06-10T15:27:47.153Z,30.70
2019-06-10T15:30:22.555Z,31.10
2019-06-10T15:32:42.775Z,28.70
2019-06-10T15:35:10.708Z,30.00
2019-06-10T15:37:37.875Z,30.00
2019-06-10T15:40:04.896Z,31.30
2019-06-10T15:42:33.312Z,30.20
2019-06-10T15:44:59.139Z,31.40
2019-06-10T15:47:26.533Z,31.90
2019-06-10T15:49:52.989Z,30.00
2019-06-10T15:52:20.653Z,31.60
2019-06-10T15:54:47.218Z,31.60
2019-06-10T15:57:26.501Z,31.50
2019-06-10T15:59:42.781Z,30.70
2019-06-10T16:02:09.249Z,30.20
2019-06-10T16:04:36.715Z,30.70
2019-06-10T16:07:03.051Z,30.40
2019-06-10T16:09:29.360Z,30.70
2019-06-10T16:11:55.902Z,30.50
2019-06-10T16:14:25.176Z,30.50
2019-06-10T16:16:52.441Z,31.10
2019-06-10T16:19:19.550Z,30.90
2019-06-10T16:21:46.045Z,31.60
2019-06-10T16:24:13.655Z,31.30
2019-06-10T16:26:40.317Z,29.70
2019-06-10T16:29:06.543Z,30.30
2019-06-10T16:31:52.974Z,29.70
2019-06-10T16:34:19.708Z,30.80
2019-06-10T16:36:47.217Z,31.20
2019-06-10T16:39:13.471Z,31.30
2019-06-10T16:41:39.696Z,30.50
2019-06-10T16:44:06.013Z,30.30
2019-06-10T16:46:32.533Z,31.40
2019-06-10T16:48:58.756Z,30.50
2019-06-10T16:51:25.764Z,30.40
2019-06-10T16:53:52.956Z,30.40
2019-06-10T16:56:19.710Z,30.60
2019-06-10T16:58:46.086Z,30.20
2019-06-10T17:01:12.622Z,30.30
2019-06-10T17:03:39.073Z,30.00
2019-06-10T17:06:05.405Z,30.10
2019-06-10T17:08:33.495Z,30.20
2019-06-10T17:10:59.645Z,30.00
2019-06-10T17:13:28.920Z,30.10
2019-06-10T17:15:55.669Z,30.40
2019-06-10T17:18:23.570Z,29.60
2019-06-10T17:20:50.151Z,30.00
2019-06-10T17:23:26.493Z,30.20
2019-06-10T17:25:53.887Z,31.10
2019-06-10T17:28:24.696Z,30.50
2019-06-10T17:30:52.893Z,30.00
2019-06-10T17:33:19.771Z,30.30
2019-06-10T17:35:46.465Z,30.50
2019-06-10T17:38:12.790Z,29.60
2019-06-10T17:40:39.101Z,30.20
2019-06-10T17:43:05.389Z,30.80
2019-06-10T17:45:32.167Z,31.10
2019-06-10T17:47:58.761Z,30.00
2019-06-10T17:50:25.335Z,30.80
2019-06-10T17:52:53.541Z,30.50
2019-06-10T17:55:19.941Z,29.90
2019-06-10T17:57:47.540Z,30.70
2019-06-10T18:00:15.074Z,31.00
2019-06-10T18:02:42.581Z,31.00
2019-06-10T18:05:09.582Z,30.50
2019-06-10T18:07:35.874Z,31.30
2019-06-10T18:10:04.890Z,30.80
2019-06-10T18:12:33.971Z,30.40
2019-06-10T18:14:59.221Z,31.90
2019-06-10T18:17:27.114Z,34.70
2019-06-10T18:19:54.648Z,37.10
2019-06-10T18:22:22.887Z,38.40
2019-06-10T18:24:48.913Z,39.50
2019-06-10T18:27:15.222Z,40.20
2019-06-10T18:29:42.628Z,41.30
2019-06-10T18:32:09.097Z,41.70
2019-06-10T18:34:37.894Z,42.30
2019-06-10T18:37:03.344Z,42.80
2019-06-10T18:39:29.669Z,42.80
2019-06-10T18:41:56.023Z,43.30
2019-06-10T18:44:25.926Z,43.80
2019-06-10T18:46:50.289Z,44.00
2019-06-10T18:49:16.528Z,44.50
2019-06-10T18:51:43.451Z,44.70
2019-06-10T18:54:10.086Z,45.10
2019-06-10T18:56:37.372Z,45.80
2019-06-10T18:59:15.605Z,45.90
2019-06-10T19:01:32.262Z,46.20
2019-06-10T19:03:58.657Z,46.10
2019-06-10T19:06:25.048Z,46.10
2019-06-10T19:08:53.096Z,46.50
2019-06-10T19:11:19.370Z,47.00
2019-06-10T19:13:45.729Z,47.00
2019-06-10T19:16:12.940Z,47.30
2019-06-10T19:18:40.884Z,47.50
2019-06-10T19:21:08.708Z,47.70
2019-06-10T19:23:37.793Z,48.10
2019-06-10T19:26:03.438Z,47.80
2019-06-10T19:28:30.635Z,48.20
2019-06-10T19:30:57.877Z,47.60
2019-06-10T19:33:24.197Z,46.80
2019-06-10T19:35:52.817Z,46.50
2019-06-10T19:38:18.684Z,46.20
2019-06-10T19:40:44.974Z,44.90
2019-06-10T19:43:12.347Z,43.60
2019-06-10T19:45:38.725Z,43.80
2019-06-10T19:48:04.963Z,43.90
2019-06-10T19:50:33.092Z,43.70
2019-06-10T19:52:59.302Z,44.60
2019-06-10T19:55:25.529Z,45.10
2019-06-10T19:57:51.857Z,45.70
2019-06-10T20:00:18.807Z,46.70
2019-06-10T20:02:46.928Z,48.40
2019-06-10T20:05:13.388Z,49.20
2019-06-10T20:07:43.051Z,50.10
2019-06-10T20:10:08.011Z,51.20
2019-06-10T20:12:34.469Z,52.60
2019-06-10T20:15:02.238Z,53.20
2019-06-10T20:17:28.741Z,54.00
2019-06-10T20:19:55.009Z,55.00
2019-06-10T20:22:22.810Z,55.20
2019-06-10T20:24:49.270Z,55.50
2019-06-10T20:27:15.509Z,55.90
2019-06-10T20:29:43.060Z,56.60
2019-06-10T20:32:09.875Z,56.70
2019-06-10T20:34:37.120Z,57.00
2019-06-10T20:37:04.760Z,57.70
2019-06-10T20:39:32.954Z,57.90
2019-06-10T20:41:59.338Z,58.40
2019-06-10T20:44:25.595Z,58.20
2019-06-10T20:46:52.935Z,58.30
2019-06-10T20:49:19.482Z,58.80
2019-06-10T20:51:57.002Z,59.00
2019-06-10T20:54:13.953Z,59.10
2019-06-10T20:56:41.117Z,59.50
2019-06-10T20:59:08.369Z,59.30
2019-06-10T21:01:34.612Z,59.30
2019-06-10T21:04:03.318Z,59.70
2019-06-10T21:06:32.564Z,59.70
2019-06-10T21:08:59.343Z,60.00
2019-06-10T21:11:25.676Z,60.30
2019-06-10T21:13:53.244Z,61.20
2019-06-10T21:16:20.013Z,61.30
2019-06-10T21:18:48.775Z,61.90
2019-06-10T21:21:14.388Z,61.60
2019-06-10T21:23:42.983Z,62.10
2019-06-10T21:26:08.896Z,61.50
2019-06-10T21:28:35.230Z,62.00
2019-06-10T21:31:02.825Z,61.90
2019-06-10T21:33:29.528Z,62.50
2019-06-10T21:35:55.857Z,63.10
2019-06-10T21:38:23.168Z,62.70
2019-06-10T21:40:49.794Z,62.60
2019-06-10T21:43:16.182Z,62.40
2019-06-10T21:45:43.897Z,62.50
2019-06-10T21:48:12.392Z,62.80
2019-06-10T21:50:38.593Z,62.60
2019-06-10T21:53:04.825Z,61.00
2019-06-10T21:55:33.128Z,62.70
2019-06-10T21:57:59.166Z,61.00
2019-06-10T22:00:28.316Z,60.30
2019-06-10T22:02:58.446Z,60.70
2019-06-10T22:05:24.390Z,60.90
2019-06-10T22:07:55.110Z,60.90
2019-06-10T22:10:19.704Z,61.10
2019-06-10T22:12:46.035Z,61.20
2019-06-10T22:15:12.773Z,62.00
2019-06-10T22:17:39.002Z,63.20
2019-06-10T22:20:06.427Z,63.30
2019-06-10T22:22:32.755Z,62.50
2019-06-10T22:24:58.993Z,64.80
2019-06-10T22:27:25.228Z,64.60
2019-06-10T22:29:53.873Z,65.60
2019-06-10T22:32:19.761Z,65.80
2019-06-10T22:34:46.004Z,66.30
2019-06-10T22:37:12.557Z,66.50
2019-06-10T22:39:38.934Z,65.20
2019-06-10T22:42:05.182Z,66.90
2019-06-10T22:44:33.135Z,67.00
2019-06-10T22:47:00.115Z,67.40
2019-06-10T22:49:26.923Z,68.30
2019-06-10T22:51:55.150Z,69.40
2019-06-10T22:54:21.525Z,68.90
2019-06-10T22:56:47.889Z,69.30
2019-06-10T22:59:14.261Z,70.50
2019-06-10T23:01:42.402Z,70.70
2019-06-10T23:04:08.631Z,70.50
2019-06-10T23:06:34.965Z,71.20
2019-06-10T23:09:02.672Z,72.00
2019-06-10T23:11:32.323Z,72.10
2019-06-10T23:13:59.647Z,72.70
2019-06-10T23:16:26.036Z,72.70
2019-06-10T23:18:54.033Z,73.50
2019-06-10T23:21:20.441Z,74.50
2019-06-10T23:23:46.695Z,74.30
2019-06-10T23:26:13.137Z,74.10
2019-06-10T23:28:54.446Z,73.60
2019-06-10T23:31:22.851Z,73.80
2019-06-10T23:33:50.074Z,73.90
2019-06-10T23:36:16.569Z,74.00
2019-06-10T23:38:43.230Z,74.10
2019-06-10T23:41:09.651Z,74.00
2019-06-10T23:43:35.873Z,75.20
2019-06-10T23:46:04.381Z,75.70
2019-06-10T23:48:30.229Z,76.20
2019-06-10T23:50:57.755Z,76.80
2019-06-10T23:53:24.629Z,76.70
2019-06-10T23:55:52.930Z,76.50
2019-06-10T23:58:22.001Z,75.30
